sensor_id;sensor_type;location;lat;lon;timestamp;pressure;altitude;pressure_sealevel;temperature;humidity
12219;BME280;6172;42.646;23.344;2024-01-30T00:01:16;96528.31;;;-2.18;100.00
12219;BME280;6172;42.646;23.344;2024-01-30T00:03:44;96521.75;;;-2.07;100.00
12219;BME280;6172;42.646;23.344;2024-01-30T00:06:11;96522.84;;;-2.08;100.00
12219;BME280;6172;42.646;23.344;2024-01-30T00:08:41;96528.75;;;-2.11;100.00
12219;BME280;6172;42.646;23.344;2024-01-30T00:11:09;96525.94;;;-2.19;100.00
12219;BME280;6172;42.646;23.344;2024-01-30T00:13:36;96528.16;;;-2.26;100.00
12219;BME280;6172;42.646;23.344;2024-01-30T00:16:04;96528.53;;;-2.14;100.00
12219;BME280;6172;42.646;23.344;2024-01-30T00:18:32;96536.81;;;-2.16;100.00
12219;BME280;6172;42.646;23.344;2024-01-30T00:20:59;96531.28;;;-2.19;100.00
12219;BME280;6172;42.646;23.344;2024-01-30T00:23:26;96543.53;;;-2.18;100.00
12219;BME280;6172;42.646;23.344;2024-01-30T00:25:53;96533.28;;;-2.30;100.00
12219;BME280;6172;42.646;23.344;2024-01-30T00:28:22;96535.19;;;-2.54;100.00
12219;BME280;6172;42.646;23.344;2024-01-30T00:30:49;96544.81;;;-2.34;100.00
12219;BME280;6172;42.646;23.344;2024-01-30T00:33:16;96539.41;;;-2.48;100.00
12219;BME280;6172;42.646;23.344;2024-01-30T00:35:43;96540.53;;;-2.54;100.00
12219;BME280;6172;42.646;23.344;2024-01-30T00:38:10;96539.09;;;-2.46;100.00
12219;BME280;6172;42.646;23.344;2024-01-30T00:40:38;96531.44;;;-2.53;100.00
12219;BME280;6172;42.646;23.344;2024-01-30T00:43:05;96538.22;;;-2.42;100.00
12219;BME280;6172;42.646;23.344;2024-01-30T00:45:34;96535.16;;;-2.30;100.00
12219;BME280;6172;42.646;23.344;2024-01-30T00:48:01;96533.72;;;-2.23;100.00
12219;BME280;6172;42.646;23.344;2024-01-30T00:50:28;96529.94;;;-2.22;100.00
12219;BME280;6172;42.646;23.344;2024-01-30T00:52:55;96526.84;;;-2.10;100.00
12219;BME280;6172;42.646;23.344;2024-01-30T00:55:22;96532.72;;;-2.08;100.00
12219;BME280;6172;42.646;23.344;2024-01-30T00:57:49;96535.28;;;-2.22;100.00
12219;BME280;6172;42.646;23.344;2024-01-30T01:00:16;96538.84;;;-2.08;100.00
12219;BME280;6172;42.646;23.344;2024-01-30T01:02:45;96526.22;;;-2.02;100.00
12219;BME280;6172;42.646;23.344;2024-01-30T01:05:12;96524.47;;;-2.12;100.00
12219;BME280;6172;42.646;23.344;2024-01-30T01:07:39;96528.38;;;-2.23;100.00
12219;BME280;6172;42.646;23.344;2024-01-30T01:10:08;96520.59;;;-2.19;100.00
12219;BME280;6172;42.646;23.344;2024-01-30T01:12:37;96529.03;;;-2.31;100.00
12219;BME280;6172;42.646;23.344;2024-01-30T01:15:04;96520.59;;;-2.38;100.00
12219;BME280;6172;42.646;23.344;2024-01-30T01:17:34;96532.13;;;-2.24;100.00
12219;BME280;6172;42.646;23.344;2024-01-30T01:20:04;96531.03;;;-2.41;100.00
12219;BME280;6172;42.646;23.344;2024-01-30T01:22:32;96524.84;;;-2.37;100.00
12219;BME280;6172;42.646;23.344;2024-01-30T01:24:59;96526.66;;;-2.32;100.00
12219;BME280;6172;42.646;23.344;2024-01-30T01:27:28;96527.91;;;-2.48;100.00
12219;BME280;6172;42.646;23.344;2024-01-30T01:29:55;96530.16;;;-2.37;100.00
12219;BME280;6172;42.646;23.344;2024-01-30T01:32:22;96527.78;;;-2.38;100.00
12219;BME280;6172;42.646;23.344;2024-01-30T01:34:49;96525.78;;;-2.28;100.00
12219;BME280;6172;42.646;23.344;2024-01-30T01:37:19;96523.81;;;-2.41;100.00
12219;BME280;6172;42.646;23.344;2024-01-30T01:39:48;96536.41;;;-2.46;100.00
12219;BME280;6172;42.646;23.344;2024-01-30T01:42:15;96537.94;;;-2.40;100.00
12219;BME280;6172;42.646;23.344;2024-01-30T01:44:42;96534.22;;;-2.63;100.00
12219;BME280;6172;42.646;23.344;2024-01-30T01:47:10;96539.81;;;-2.59;100.00
12219;BME280;6172;42.646;23.344;2024-01-30T01:49:37;96541.09;;;-2.57;100.00
12219;BME280;6172;42.646;23.344;2024-01-30T01:52:05;96537.34;;;-2.56;100.00
12219;BME280;6172;42.646;23.344;2024-01-30T01:54:34;96534.22;;;-2.63;100.00
12219;BME280;6172;42.646;23.344;2024-01-30T01:57:04;96532.69;;;-2.69;100.00
12219;BME280;6172;42.646;23.344;2024-01-30T01:59:31;96526.13;;;-2.76;100.00
12219;BME280;6172;42.646;23.344;2024-01-30T02:01:58;96546.56;;;-2.67;100.00
12219;BME280;6172;42.646;23.344;2024-01-30T02:04:26;96548.09;;;-2.84;100.00
12219;BME280;6172;42.646;23.344;2024-01-30T02:06:53;96540.09;;;-2.84;100.00
12219;BME280;6172;42.646;23.344;2024-01-30T02:09:21;96544.28;;;-2.78;100.00
12219;BME280;6172;42.646;23.344;2024-01-30T02:11:49;96543.00;;;-2.81;100.00
12219;BME280;6172;42.646;23.344;2024-01-30T02:14:18;96547.13;;;-2.70;100.00
12219;BME280;6172;42.646;23.344;2024-01-30T02:16:44;96549.16;;;-2.62;100.00
12219;BME280;6172;42.646;23.344;2024-01-30T02:19:12;96536.63;;;-2.61;100.00
12219;BME280;6172;42.646;23.344;2024-01-30T02:21:40;96539.41;;;-2.71;100.00
12219;BME280;6172;42.646;23.344;2024-01-30T02:24:07;96545.03;;;-2.73;100.00
12219;BME280;6172;42.646;23.344;2024-01-30T02:26:34;96545.47;;;-2.66;100.00
12219;BME280;6172;42.646;23.344;2024-01-30T02:29:00;96537.19;;;-2.64;100.00
12219;BME280;6172;42.646;23.344;2024-01-30T02:31:27;96535.22;;;-2.77;100.00
12219;BME280;6172;42.646;23.344;2024-01-30T02:33:54;96533.09;;;-2.57;100.00
12219;BME280;6172;42.646;23.344;2024-01-30T02:36:21;96531.44;;;-2.53;100.00
12219;BME280;6172;42.646;23.344;2024-01-30T02:38:49;96528.78;;;-2.34;100.00
12219;BME280;6172;42.646;23.344;2024-01-30T02:41:16;96532.19;;;-2.29;100.00
12219;BME280;6172;42.646;23.344;2024-01-30T02:43:43;96547.91;;;-2.46;100.00
12219;BME280;6172;42.646;23.344;2024-01-30T02:46:10;96541.88;;;-2.56;100.00
12219;BME280;6172;42.646;23.344;2024-01-30T02:48:37;96541.38;;;-2.58;100.00
12219;BME280;6172;42.646;23.344;2024-01-30T02:51:05;96543.38;;;-2.45;100.00
12219;BME280;6172;42.646;23.344;2024-01-30T02:53:33;96534.97;;;-2.57;100.00
12219;BME280;6172;42.646;23.344;2024-01-30T02:56:02;96527.84;;;-2.43;100.00
12219;BME280;6172;42.646;23.344;2024-01-30T02:58:29;96523.88;;;-2.46;100.00
12219;BME280;6172;42.646;23.344;2024-01-30T03:00:56;96527.22;;;-2.35;100.00
12219;BME280;6172;42.646;23.344;2024-01-30T03:03:23;96531.97;;;-2.32;100.00
12219;BME280;6172;42.646;23.344;2024-01-30T03:05:51;96527.78;;;-2.20;100.00
12219;BME280;6172;42.646;23.344;2024-01-30T03:08:18;96529.38;;;-2.19;100.00
12219;BME280;6172;42.646;23.344;2024-01-30T03:10:45;96525.66;;;-1.99;100.00
12219;BME280;6172;42.646;23.344;2024-01-30T03:13:14;96523.59;;;-2.26;100.00
12219;BME280;6172;42.646;23.344;2024-01-30T03:15:41;96523.69;;;-2.31;100.00
12219;BME280;6172;42.646;23.344;2024-01-30T03:18:08;96529.81;;;-2.30;100.00
12219;BME280;6172;42.646;23.344;2024-01-30T03:20:36;96531.41;;;-2.29;100.00
12219;BME280;6172;42.646;23.344;2024-01-30T03:23:03;96535.81;;;-2.20;100.00
12219;BME280;6172;42.646;23.344;2024-01-30T03:25:31;96526.78;;;-2.24;100.00
12219;BME280;6172;42.646;23.344;2024-01-30T03:27:58;96520.31;;;-2.18;100.00
12219;BME280;6172;42.646;23.344;2024-01-30T03:30:27;96522.16;;;-2.18;100.00
12219;BME280;6172;42.646;23.344;2024-01-30T03:32:54;96522.22;;;-2.23;100.00
12219;BME280;6172;42.646;23.344;2024-01-30T03:35:21;96522.22;;;-2.23;100.00
12219;BME280;6172;42.646;23.344;2024-01-30T03:37:48;96517.91;;;-2.38;100.00
12219;BME280;6172;42.646;23.344;2024-01-30T03:40:15;96525.69;;;-2.23;100.00
12219;BME280;6172;42.646;23.344;2024-01-30T03:42:43;96515.09;;;-2.09;100.00
12219;BME280;6172;42.646;23.344;2024-01-30T03:45:10;96513.00;;;-2.12;100.00
12219;BME280;6172;42.646;23.344;2024-01-30T03:47:39;96515.72;;;-1.99;100.00
12219;BME280;6172;42.646;23.344;2024-01-30T03:50:07;96513.28;;;-2.14;100.00
12219;BME280;6172;42.646;23.344;2024-01-30T03:52:34;96508.00;;;-2.00;100.00
12219;BME280;6172;42.646;23.344;2024-01-30T03:55:01;96509.91;;;-2.19;100.00
12219;BME280;6172;42.646;23.344;2024-01-30T03:57:28;96512.72;;;-2.11;100.00
12219;BME280;6172;42.646;23.344;2024-01-30T03:59:56;96506.94;;;-2.18;100.00
12219;BME280;6172;42.646;23.344;2024-01-30T04:02:23;96506.81;;;-2.26;100.00
12219;BME280;6172;42.646;23.344;2024-01-30T04:04:51;96518.69;;;-2.37;100.00
12219;BME280;6172;42.646;23.344;2024-01-30T04:07:19;96504.63;;;-2.43;100.00
12219;BME280;6172;42.646;23.344;2024-01-30T04:09:46;96505.91;;;-2.40;100.00
12219;BME280;6172;42.646;23.344;2024-01-30T04:12:13;96508.09;;;-2.24;100.00
12219;BME280;6172;42.646;23.344;2024-01-30T04:14:46;96502.97;;;-2.20;100.00
12219;BME280;6172;42.646;23.344;2024-01-30T04:17:13;96503.84;;;-2.25;100.00
12219;BME280;6172;42.646;23.344;2024-01-30T04:19:41;96509.81;;;-2.33;100.00
12219;BME280;6172;42.646;23.344;2024-01-30T04:25:19;96507.81;;;-2.41;100.00
12219;BME280;6172;42.646;23.344;2024-01-30T04:27:46;96503.97;;;-2.35;100.00
12219;BME280;6172;42.646;23.344;2024-01-30T04:30:16;96510.34;;;-2.31;100.00
12219;BME280;6172;42.646;23.344;2024-01-30T04:32:43;96509.19;;;-2.25;100.00
12219;BME280;6172;42.646;23.344;2024-01-30T04:35:11;96509.38;;;-2.40;100.00
12219;BME280;6172;42.646;23.344;2024-01-30T04:37:38;96511.09;;;-2.49;100.00
12219;BME280;6172;42.646;23.344;2024-01-30T04:40:06;96517.97;;;-2.43;100.00
12219;BME280;6172;42.646;23.344;2024-01-30T04:42:36;96515.16;;;-2.33;100.00
12219;BME280;6172;42.646;23.344;2024-01-30T04:45:05;96514.34;;;-2.33;100.00
12219;BME280;6172;42.646;23.344;2024-01-30T04:47:32;96519.19;;;-2.54;100.00
12219;BME280;6172;42.646;23.344;2024-01-30T04:49:59;96519.19;;;-2.54;100.00
12219;BME280;6172;42.646;23.344;2024-01-30T04:52:26;96523.56;;;-2.63;100.00
12219;BME280;6172;42.646;23.344;2024-01-30T04:54:54;96526.91;;;-2.52;100.00
12219;BME280;6172;42.646;23.344;2024-01-30T04:57:21;96532.84;;;-2.60;100.00
12219;BME280;6172;42.646;23.344;2024-01-30T04:59:50;96531.91;;;-2.93;100.00
12219;BME280;6172;42.646;23.344;2024-01-30T05:02:17;96539.28;;;-2.85;100.00
12219;BME280;6172;42.646;23.344;2024-01-30T05:04:43;96549.63;;;-3.02;100.00
12219;BME280;6172;42.646;23.344;2024-01-30T05:07:11;96541.47;;;-2.87;100.00
12219;BME280;6172;42.646;23.344;2024-01-30T05:09:38;96540.38;;;-2.86;100.00
12219;BME280;6172;42.646;23.344;2024-01-30T05:12:06;96542.81;;;-2.66;100.00
12219;BME280;6172;42.646;23.344;2024-01-30T05:14:33;96538.47;;;-2.62;100.00
12219;BME280;6172;42.646;23.344;2024-01-30T05:17:02;96547.81;;;-2.59;100.00
12219;BME280;6172;42.646;23.344;2024-01-30T05:19:29;96549.59;;;-2.55;100.00
12219;BME280;6172;42.646;23.344;2024-01-30T05:21:56;96541.88;;;-2.56;100.00
12219;BME280;6172;42.646;23.344;2024-01-30T05:24:23;96545.72;;;-2.62;100.00
12219;BME280;6172;42.646;23.344;2024-01-30T05:26:49;96546.31;;;-2.70;100.00
12219;BME280;6172;42.646;23.344;2024-01-30T05:29:18;96541.78;;;-2.70;100.00
12219;BME280;6172;42.646;23.344;2024-01-30T05:31:45;96553.78;;;-2.67;100.00
12219;BME280;6172;42.646;23.344;2024-01-30T05:34:14;96546.03;;;-2.69;100.00
12219;BME280;6172;42.646;23.344;2024-01-30T05:36:41;96552.91;;;-2.63;100.00
12219;BME280;6172;42.646;23.344;2024-01-30T05:39:08;96548.16;;;-2.66;100.00
12219;BME280;6172;42.646;23.344;2024-01-30T05:41:35;96554.84;;;-2.68;100.00
12219;BME280;6172;42.646;23.344;2024-01-30T05:44:03;96549.00;;;-2.70;100.00
12219;BME280;6172;42.646;23.344;2024-01-30T05:46:30;96555.34;;;-2.66;100.00
12219;BME280;6172;42.646;23.344;2024-01-30T05:48:57;96555.13;;;-2.70;100.00
12219;BME280;6172;42.646;23.344;2024-01-30T05:51:25;96541.44;;;-3.10;100.00
12219;BME280;6172;42.646;23.344;2024-01-30T05:53:53;96543.88;;;-2.90;100.00
12219;BME280;6172;42.646;23.344;2024-01-30T05:56:20;96544.84;;;-3.05;100.00
12219;BME280;6172;42.646;23.344;2024-01-30T05:58:48;96551.44;;;-2.97;100.00
12219;BME280;6172;42.646;23.344;2024-01-30T06:01:15;96548.72;;;-2.92;100.00
12219;BME280;6172;42.646;23.344;2024-01-30T06:03:43;96552.13;;;-2.87;100.00
12219;BME280;6172;42.646;23.344;2024-01-30T06:06:10;96545.06;;;-2.78;100.00
12219;BME280;6172;42.646;23.344;2024-01-30T06:08:38;96549.84;;;-2.75;100.00
12219;BME280;6172;42.646;23.344;2024-01-30T06:11:05;96555.63;;;-2.68;100.00
12219;BME280;6172;42.646;23.344;2024-01-30T06:13:32;96550.88;;;-2.71;100.00
12219;BME280;6172;42.646;23.344;2024-01-30T06:15:59;96552.97;;;-2.68;100.00
12219;BME280;6172;42.646;23.344;2024-01-30T06:18:26;96559.63;;;-2.65;100.00
12219;BME280;6172;42.646;23.344;2024-01-30T06:20:56;96557.41;;;-2.58;100.00
12219;BME280;6172;42.646;23.344;2024-01-30T06:23:23;96560.69;;;-2.66;100.00
12219;BME280;6172;42.646;23.344;2024-01-30T06:25:51;96543.88;;;-2.90;100.00
12219;BME280;6172;42.646;23.344;2024-01-30T06:28:18;96554.28;;;-2.65;100.00
12219;BME280;6172;42.646;23.344;2024-01-30T06:30:45;96558.41;;;-2.54;100.00
12219;BME280;6172;42.646;23.344;2024-01-30T06:33:12;96552.34;;;-2.60;100.00
12219;BME280;6172;42.646;23.344;2024-01-30T06:35:40;96551.22;;;-2.54;100.00
12219;BME280;6172;42.646;23.344;2024-01-30T06:38:07;96551.34;;;-2.64;100.00
12219;BME280;6172;42.646;23.344;2024-01-30T06:40:35;96562.47;;;-2.57;100.00
12219;BME280;6172;42.646;23.344;2024-01-30T06:43:05;96550.53;;;-2.41;100.00
12219;BME280;6172;42.646;23.344;2024-01-30T06:45:33;96562.66;;;-2.30;100.00
12219;BME280;6172;42.646;23.344;2024-01-30T06:48:00;96556.47;;;-1.88;100.00
12219;BME280;6172;42.646;23.344;2024-01-30T06:50:27;96544.38;;;-0.89;100.00
12219;BME280;6172;42.646;23.344;2024-01-30T06:52:54;96560.28;;;0.24;89.94
12219;BME280;6172;42.646;23.344;2024-01-30T06:55:21;96549.63;;;1.38;78.29
12219;BME280;6172;42.646;23.344;2024-01-30T06:57:48;96552.38;;;2.28;68.29
12219;BME280;6172;42.646;23.344;2024-01-30T07:00:18;96545.41;;;2.78;62.93
12219;BME280;6172;42.646;23.344;2024-01-30T07:02:45;96553.97;;;3.34;56.71
12219;BME280;6172;42.646;23.344;2024-01-30T07:05:13;96542.84;;;3.45;54.42
12219;BME280;6172;42.646;23.344;2024-01-30T07:07:41;96549.44;;;3.93;52.07
12219;BME280;6172;42.646;23.344;2024-01-30T07:10:08;96548.78;;;4.46;49.87
12219;BME280;6172;42.646;23.344;2024-01-30T07:12:35;96538.66;;;4.43;46.93
12219;BME280;6172;42.646;23.344;2024-01-30T07:15:04;96545.50;;;4.61;46.11
12219;BME280;6172;42.646;23.344;2024-01-30T07:17:35;96549.53;;;4.34;46.28
12219;BME280;6172;42.646;23.344;2024-01-30T07:20:03;96547.00;;;4.50;46.06
12219;BME280;6172;42.646;23.344;2024-01-30T07:22:31;96547.00;;;4.70;45.39
12219;BME280;6172;42.646;23.344;2024-01-30T07:24:59;96548.22;;;5.26;44.48
12219;BME280;6172;42.646;23.344;2024-01-30T07:27:26;96552.81;;;4.40;44.91
12219;BME280;6172;42.646;23.344;2024-01-30T07:29:53;96543.72;;;4.24;45.12
12219;BME280;6172;42.646;23.344;2024-01-30T07:32:20;96555.31;;;3.11;46.70
12219;BME280;6172;42.646;23.344;2024-01-30T07:34:49;96547.25;;;3.03;48.54
12219;BME280;6172;42.646;23.344;2024-01-30T07:37:16;96541.69;;;3.08;47.61
12219;BME280;6172;42.646;23.344;2024-01-30T07:39:43;96542.41;;;4.30;45.93
12219;BME280;6172;42.646;23.344;2024-01-30T07:42:10;96551.25;;;4.39;44.77
12219;BME280;6172;42.646;23.344;2024-01-30T07:44:38;96537.72;;;3.14;46.65
12219;BME280;6172;42.646;23.344;2024-01-30T07:47:05;96551.13;;;2.51;47.14
12219;BME280;6172;42.646;23.344;2024-01-30T07:49:33;96554.44;;;2.22;49.50
12219;BME280;6172;42.646;23.344;2024-01-30T07:52:01;96556.66;;;2.63;48.83
12219;BME280;6172;42.646;23.344;2024-01-30T07:54:32;96547.31;;;2.18;51.02
12219;BME280;6172;42.646;23.344;2024-01-30T07:57:00;96549.56;;;3.21;49.46
12219;BME280;6172;42.646;23.344;2024-01-30T07:59:27;96548.97;;;3.07;48.81
12219;BME280;6172;42.646;23.344;2024-01-30T08:01:54;96546.44;;;3.19;48.37
12219;BME280;6172;42.646;23.344;2024-01-30T08:04:21;96542.25;;;2.42;49.70
12219;BME280;6172;42.646;23.344;2024-01-30T08:06:48;96536.50;;;3.41;48.73
12219;BME280;6172;42.646;23.344;2024-01-30T08:09:18;96553.47;;;2.78;48.41
12219;BME280;6172;42.646;23.344;2024-01-30T08:11:45;96535.22;;;2.92;49.01
12219;BME280;6172;42.646;23.344;2024-01-30T08:14:12;96540.78;;;2.78;49.03
12219;BME280;6172;42.646;23.344;2024-01-30T08:16:55;96526.34;;;3.00;48.03
12219;BME280;6172;42.646;23.344;2024-01-30T08:19:24;96545.00;;;3.13;48.39
12219;BME280;6172;42.646;23.344;2024-01-30T08:21:51;96535.41;;;2.95;47.93
12219;BME280;6172;42.646;23.344;2024-01-30T08:24:19;96543.06;;;3.31;47.74
12219;BME280;6172;42.646;23.344;2024-01-30T08:26:46;96539.91;;;3.67;47.57
12219;BME280;6172;42.646;23.344;2024-01-30T08:29:13;96532.19;;;3.86;45.92
12219;BME280;6172;42.646;23.344;2024-01-30T08:31:40;96544.22;;;3.59;46.82
12219;BME280;6172;42.646;23.344;2024-01-30T08:34:07;96539.91;;;4.25;49.92
12219;BME280;6172;42.646;23.344;2024-01-30T08:36:34;96546.69;;;4.02;46.89
12219;BME280;6172;42.646;23.344;2024-01-30T08:39:02;96548.63;;;3.17;47.75
12219;BME280;6172;42.646;23.344;2024-01-30T08:41:34;96541.41;;;4.34;46.18
12219;BME280;6172;42.646;23.344;2024-01-30T08:44:01;96557.19;;;3.19;47.23
12219;BME280;6172;42.646;23.344;2024-01-30T08:46:29;96569.16;;;2.25;47.69
12219;BME280;6172;42.646;23.344;2024-01-30T08:48:58;96553.78;;;2.08;50.70
12219;BME280;6172;42.646;23.344;2024-01-30T08:51:25;96567.38;;;1.95;49.05
12219;BME280;6172;42.646;23.344;2024-01-30T08:53:52;96566.53;;;1.77;51.27
12219;BME280;6172;42.646;23.344;2024-01-30T08:56:19;96566.31;;;2.30;50.04
12219;BME280;6172;42.646;23.344;2024-01-30T08:58:48;96567.28;;;1.69;50.02
12219;BME280;6172;42.646;23.344;2024-01-30T09:01:15;96554.81;;;1.04;51.63
12219;BME280;6172;42.646;23.344;2024-01-30T09:03:43;96570.28;;;0.76;53.94
12219;BME280;6172;42.646;23.344;2024-01-30T09:06:12;96564.13;;;0.75;55.48
12219;BME280;6172;42.646;23.344;2024-01-30T09:08:39;96569.25;;;1.16;54.00
12219;BME280;6172;42.646;23.344;2024-01-30T09:11:08;96574.28;;;1.40;53.65
12219;BME280;6172;42.646;23.344;2024-01-30T09:13:36;96566.56;;;1.47;53.47
12219;BME280;6172;42.646;23.344;2024-01-30T09:16:05;96564.38;;;1.96;53.05
12219;BME280;6172;42.646;23.344;2024-01-30T09:18:32;96559.84;;;2.39;51.17
12219;BME280;6172;42.646;23.344;2024-01-30T09:20:59;96557.28;;;2.51;50.12
12219;BME280;6172;42.646;23.344;2024-01-30T09:23:27;96547.16;;;2.82;49.69
12219;BME280;6172;42.646;23.344;2024-01-30T09:25:55;96544.59;;;3.41;48.77
12219;BME280;6172;42.646;23.344;2024-01-30T09:28:22;96548.75;;;2.58;48.80
12219;BME280;6172;42.646;23.344;2024-01-30T09:30:49;96548.88;;;2.61;49.02
12219;BME280;6172;42.646;23.344;2024-01-30T09:33:18;96543.00;;;2.08;50.10
12219;BME280;6172;42.646;23.344;2024-01-30T09:35:45;96536.69;;;2.13;50.06
12219;BME280;6172;42.646;23.344;2024-01-30T09:38:12;96546.00;;;1.90;51.35
12219;BME280;6172;42.646;23.344;2024-01-30T09:40:39;96547.03;;;1.63;51.75
12219;BME280;6172;42.646;23.344;2024-01-30T09:43:10;96546.22;;;1.54;52.19
12219;BME280;6172;42.646;23.344;2024-01-30T09:45:44;96543.81;;;1.44;51.51
12219;BME280;6172;42.646;23.344;2024-01-30T09:48:14;96546.25;;;1.63;52.17
12219;BME280;6172;42.646;23.344;2024-01-30T09:50:43;96544.03;;;1.26;52.67
12219;BME280;6172;42.646;23.344;2024-01-30T09:53:11;96537.06;;;1.64;53.11
12219;BME280;6172;42.646;23.344;2024-01-30T09:55:43;96543.16;;;1.08;52.84
12219;BME280;6172;42.646;23.344;2024-01-30T09:58:11;96536.00;;;1.26;53.78
12219;BME280;6172;42.646;23.344;2024-01-30T10:00:38;96528.81;;;2.25;53.70
12219;BME280;6172;42.646;23.344;2024-01-30T10:03:06;96524.19;;;2.68;51.13
12219;BME280;6172;42.646;23.344;2024-01-30T10:05:35;96524.63;;;2.95;50.12
12219;BME280;6172;42.646;23.344;2024-01-30T10:08:07;96515.59;;;3.75;50.10
12219;BME280;6172;42.646;23.344;2024-01-30T10:10:35;96513.56;;;3.64;50.60
12219;BME280;6172;42.646;23.344;2024-01-30T10:13:02;96512.94;;;3.96;50.24
12219;BME280;6172;42.646;23.344;2024-01-30T10:15:29;96519.69;;;3.44;49.72
12219;BME280;6172;42.646;23.344;2024-01-30T10:17:57;96520.56;;;3.27;50.29
12219;BME280;6172;42.646;23.344;2024-01-30T10:20:25;96510.69;;;3.98;49.73
12219;BME280;6172;42.646;23.344;2024-01-30T10:22:52;96500.34;;;4.00;48.33
12219;BME280;6172;42.646;23.344;2024-01-30T10:25:21;96504.94;;;3.99;48.16
12219;BME280;6172;42.646;23.344;2024-01-30T10:27:52;96520.50;;;3.44;48.54
12219;BME280;6172;42.646;23.344;2024-01-30T10:30:19;96512.53;;;3.01;49.49
12219;BME280;6172;42.646;23.344;2024-01-30T10:32:46;96515.25;;;2.93;51.57
12219;BME280;6172;42.646;23.344;2024-01-30T10:35:15;96516.66;;;3.83;50.07
12219;BME280;6172;42.646;23.344;2024-01-30T10:37:43;96517.69;;;3.99;49.87
12219;BME280;6172;42.646;23.344;2024-01-30T10:40:13;96506.78;;;2.74;50.78
12219;BME280;6172;42.646;23.344;2024-01-30T10:42:44;96512.00;;;2.70;51.76
12219;BME280;6172;42.646;23.344;2024-01-30T10:45:12;96512.53;;;3.01;51.42
12219;BME280;6172;42.646;23.344;2024-01-30T10:47:44;96513.53;;;3.34;50.79
12219;BME280;6172;42.646;23.344;2024-01-30T10:50:14;96508.81;;;2.77;50.56
12219;BME280;6172;42.646;23.344;2024-01-30T10:52:42;96514.84;;;1.89;52.82
12219;BME280;6172;42.646;23.344;2024-01-30T10:55:10;96514.94;;;1.58;54.68
12219;BME280;6172;42.646;23.344;2024-01-30T10:57:37;96507.09;;;1.96;54.67
12219;BME280;6172;42.646;23.344;2024-01-30T11:00:08;96505.53;;;1.95;54.72
12219;BME280;6172;42.646;23.344;2024-01-30T11:02:37;96504.41;;;2.04;54.71
12219;BME280;6172;42.646;23.344;2024-01-30T11:05:05;96500.16;;;1.30;56.04
12219;BME280;6172;42.646;23.344;2024-01-30T11:07:34;96488.88;;;1.20;57.95
12219;BME280;6172;42.646;23.344;2024-01-30T11:10:02;96488.69;;;1.16;58.18
12219;BME280;6172;42.646;23.344;2024-01-30T11:12:30;96491.47;;;1.33;57.52
12219;BME280;6172;42.646;23.344;2024-01-30T11:15:16;96490.63;;;1.24;57.88
12219;BME280;6172;42.646;23.344;2024-01-30T11:17:45;96491.53;;;1.11;57.74
12219;BME280;6172;42.646;23.344;2024-01-30T11:20:15;96491.97;;;1.05;59.59
12219;BME280;6172;42.646;23.344;2024-01-30T11:22:45;96489.44;;;1.47;58.18
12219;BME280;6172;42.646;23.344;2024-01-30T11:25:13;96493.44;;;1.19;58.31
12219;BME280;6172;42.646;23.344;2024-01-30T11:27:41;96492.88;;;0.92;59.48
12219;BME280;6172;42.646;23.344;2024-01-30T11:30:21;96491.50;;;0.72;61.36
12219;BME280;6172;42.646;23.344;2024-01-30T11:32:58;96483.16;;;0.51;63.27
12219;BME280;6172;42.646;23.344;2024-01-30T11:35:26;96479.47;;;0.92;63.53
12219;BME280;6172;42.646;23.344;2024-01-30T11:37:54;96486.00;;;0.77;63.24
12219;BME280;6172;42.646;23.344;2024-01-30T11:40:21;96488.91;;;0.89;63.15
12219;BME280;6172;42.646;23.344;2024-01-30T11:42:48;96490.19;;;0.61;63.60
12219;BME280;6172;42.646;23.344;2024-01-30T11:45:19;96485.78;;;0.43;65.20
12219;BME280;6172;42.646;23.344;2024-01-30T11:47:46;96492.44;;;0.23;66.56
12219;BME280;6172;42.646;23.344;2024-01-30T11:50:14;96486.50;;;0.13;68.77
12219;BME280;6172;42.646;23.344;2024-01-30T11:52:42;96488.91;;;0.36;70.48
12219;BME280;6172;42.646;23.344;2024-01-30T11:55:10;96475.50;;;-0.21;71.33
12219;BME280;6172;42.646;23.344;2024-01-30T11:57:37;96476.91;;;-0.24;73.37
12219;BME280;6172;42.646;23.344;2024-01-30T12:00:05;96477.78;;;0.07;73.58
12219;BME280;6172;42.646;23.344;2024-01-30T12:02:37;96474.69;;;0.36;72.55
12219;BME280;6172;42.646;23.344;2024-01-30T12:05:07;96465.19;;;0.52;71.41
12219;BME280;6172;42.646;23.344;2024-01-30T12:07:35;96456.72;;;0.14;71.92
12219;BME280;6172;42.646;23.344;2024-01-30T12:10:03;96452.78;;;0.34;71.83
12219;BME280;6172;42.646;23.344;2024-01-30T12:12:33;96451.97;;;0.33;72.33
12219;BME280;6172;42.646;23.344;2024-01-30T12:15:00;96448.22;;;0.43;71.54
12219;BME280;6172;42.646;23.344;2024-01-30T12:17:31;96444.91;;;0.68;70.23
12219;BME280;6172;42.646;23.344;2024-01-30T12:20:07;96437.97;;;1.06;67.63
12219;BME280;6172;42.646;23.344;2024-01-30T12:22:39;96434.31;;;1.58;64.86
12219;BME280;6172;42.646;23.344;2024-01-30T12:25:08;96421.19;;;1.74;62.67
12219;BME280;6172;42.646;23.344;2024-01-30T12:27:36;96427.84;;;2.02;61.72
12219;BME280;6172;42.646;23.344;2024-01-30T12:30:05;96427.75;;;2.61;59.19
12219;BME280;6172;42.646;23.344;2024-01-30T12:32:34;96414.97;;;2.50;57.76
12219;BME280;6172;42.646;23.344;2024-01-30T12:35:02;96420.56;;;2.02;58.74
12219;BME280;6172;42.646;23.344;2024-01-30T12:37:31;96413.13;;;1.57;60.25
12219;BME280;6172;42.646;23.344;2024-01-30T12:39:59;96405.09;;;1.99;60.38
12219;BME280;6172;42.646;23.344;2024-01-30T12:42:27;96407.00;;;1.82;60.20
12219;BME280;6172;42.646;23.344;2024-01-30T12:44:56;96414.41;;;1.93;59.09
12219;BME280;6172;42.646;23.344;2024-01-30T12:47:23;96407.28;;;1.63;60.26
12219;BME280;6172;42.646;23.344;2024-01-30T12:49:51;96406.97;;;2.07;58.93
12219;BME280;6172;42.646;23.344;2024-01-30T12:52:19;96402.84;;;2.01;59.63
12219;BME280;6172;42.646;23.344;2024-01-30T12:54:48;96398.09;;;2.15;58.74
12219;BME280;6172;42.646;23.344;2024-01-30T12:57:15;96399.03;;;2.36;56.93
12219;BME280;6172;42.646;23.344;2024-01-30T12:59:43;96391.13;;;2.14;56.91
12219;BME280;6172;42.646;23.344;2024-01-30T13:02:11;96385.16;;;1.66;57.98
12219;BME280;6172;42.646;23.344;2024-01-30T13:04:38;96389.75;;;1.74;58.93
12219;BME280;6172;42.646;23.344;2024-01-30T13:07:06;96391.59;;;2.25;57.72